Time;durP1;ratioP1;P1;durP2;ratioP2;P2;SDS_P1;SDS_P2;PMS_P1;PMS_P2;Temp;Humidity;BMP_temperature;BMP_pressure;BME280_temperature;BME280_humidity;BME280_pressure;Samples;Min_cycle;Max_cycle;Signal;HPM_P1;HPM_P2
2022/08/06 00:00:55;;;;;;;2.70;2.03;;;20.80;99.90;;;;;;5079789;28;21218;-81
2022/08/06 00:03:22;;;;;;;1.77;1.67;;;20.80;99.90;;;;;;5083661;28;21150;-81
2022/08/06 00:05:50;;;;;;;2.60;2.40;;;20.70;99.90;;;;;;5082764;28;20619;-81
2022/08/06 00:08:17;;;;;;;2.93;2.00;;;20.70;99.90;;;;;;5084580;28;20626;-81
2022/08/06 00:10:44;;;;;;;2.43;2.23;;;20.70;99.90;;;;;;5083128;28;21289;-81
2022/08/06 00:13:12;;;;;;;2.37;2.03;;;20.70;99.90;;;;;;5080656;28;20624;-82
2022/08/06 00:15:39;;;;;;;2.50;2.33;;;20.60;99.90;;;;;;5081400;28;20639;-81
2022/08/06 00:18:06;;;;;;;2.10;1.90;;;20.60;99.90;;;;;;5085558;28;20626;-81
2022/08/06 00:20:35;;;;;;;6.33;2.10;;;20.60;99.90;;;;;;5087970;28;20679;-81
2022/08/06 00:23:03;;;;;;;2.40;1.87;;;20.50;99.90;;;;;;5092042;28;20627;-81
2022/08/06 00:25:30;;;;;;;2.20;1.90;;;20.50;99.90;;;;;;5082172;28;20618;-81
2022/08/06 00:27:57;;;;;;;2.20;2.00;;;20.50;99.90;;;;;;5090483;28;20627;-81
2022/08/06 00:30:23;;;;;;;1.50;1.40;;;20.50;99.90;;;;;;5092570;28;20648;-81
2022/08/06 00:32:52;;;;;;;2.40;2.23;;;20.50;99.90;;;;;;5088246;28;20642;-81
2022/08/06 00:35:20;;;;;;;2.50;2.30;;;20.50;99.90;;;;;;5091440;28;20611;-81
2022/08/06 00:37:46;;;;;;;1.70;1.60;;;20.50;99.90;;;;;;5085650;28;20624;-81
2022/08/06 00:40:16;;;;;;;2.30;2.10;;;20.50;99.90;;;;;;5090919;28;20675;-81
2022/08/06 00:42:43;;;;;;;2.00;1.77;;;20.50;99.90;;;;;;5087808;28;21190;-81
2022/08/06 00:45:12;;;;;;;2.80;2.00;;;20.50;99.90;;;;;;5088323;28;20623;-81
2022/08/06 00:47:38;;;;;;;2.03;1.90;;;20.40;99.90;;;;;;5088508;28;20635;-81
2022/08/06 00:50:06;;;;;;;2.80;1.83;;;20.50;99.90;;;;;;5088964;28;20982;-81
2022/08/06 00:52:33;;;;;;;2.80;1.53;;;20.50;99.90;;;;;;5087016;28;20625;-81
2022/08/06 00:55:00;;;;;;;1.80;1.70;;;20.50;99.90;;;;;;5092383;28;20943;-81
2022/08/06 00:57:28;;;;;;;2.03;1.83;;;20.50;99.90;;;;;;5086040;28;21036;-81
2022/08/06 00:59:54;;;;;;;3.17;2.30;;;20.40;99.90;;;;;;5091307;28;21234;-81
2022/08/06 01:02:21;;;;;;;1.83;1.70;;;20.40;99.90;;;;;;5094723;28;20623;-81
2022/08/06 01:04:48;;;;;;;3.17;1.60;;;20.40;99.90;;;;;;5083977;28;20639;-81
2022/08/06 01:07:15;;;;;;;2.87;1.53;;;20.40;99.90;;;;;;5091795;28;20619;-81
2022/08/06 01:09:42;;;;;;;1.47;1.37;;;20.40;99.90;;;;;;5089518;28;20734;-81
2022/08/06 01:12:09;;;;;;;1.63;1.53;;;20.40;99.90;;;;;;5089427;28;20630;-81
2022/08/06 01:14:37;;;;;;;4.40;1.50;;;20.30;99.90;;;;;;5091410;28;20632;-81
2022/08/06 01:17:09;;;;;;;4.13;1.33;;;20.30;99.90;;;;;;5080235;28;20646;-81
2022/08/06 01:19:50;;;;;;;1.40;1.30;;;20.30;99.90;;;;;;5081013;28;20687;-81
2022/08/06 01:22:59;;;;;;;2.30;1.80;;;20.30;99.90;;;;;;5086022;28;20642;-81
2022/08/06 01:25:54;;;;;;;4.87;1.80;;;20.30;99.90;;;;;;5088923;28;20647;-81
2022/08/06 01:28:27;;;;;;;1.30;1.20;;;20.30;99.90;;;;;;5093123;28;21171;-83
2022/08/06 01:31:04;;;;;;;2.50;1.03;;;20.20;99.90;;;;;;5078687;28;20675;-80
2022/08/06 01:33:35;;;;;;;1.80;1.50;;;20.20;99.90;;;;;;5083918;28;20651;-80
2022/08/06 01:36:08;;;;;;;2.07;1.20;;;20.30;99.90;;;;;;5088630;28;20623;-82
2022/08/06 01:38:39;;;;;;;1.93;1.60;;;20.20;99.90;;;;;;5091700;28;20639;-80
2022/08/06 01:41:09;;;;;;;1.87;1.37;;;20.20;99.90;;;;;;5090045;28;20720;-82
2022/08/06 01:43:38;;;;;;;1.50;1.33;;;20.20;99.90;;;;;;5085017;28;20618;-82
2022/08/06 01:46:08;;;;;;;1.67;1.40;;;20.20;99.90;;;;;;5094625;28;20626;-82
2022/08/06 01:48:37;;;;;;;1.70;1.30;;;20.20;99.90;;;;;;5091043;28;20635;-82
2022/08/06 01:51:07;;;;;;;2.33;1.20;;;20.10;99.90;;;;;;5089299;28;20654;-82
2022/08/06 01:53:37;;;;;;;1.50;1.40;;;20.10;99.90;;;;;;5092885;28;20674;-82
2022/08/06 01:56:07;;;;;;;1.73;1.10;;;20.00;99.90;;;;;;5096228;28;20646;-80
2022/08/06 01:58:39;;;;;;;2.80;1.30;;;20.00;99.90;;;;;;5095025;28;20654;-80
2022/08/06 02:01:11;;;;;;;3.53;1.40;;;19.90;99.90;;;;;;5088773;28;20670;-80
2022/08/06 02:03:43;;;;;;;2.17;1.40;;;19.90;99.90;;;;;;5088797;28;20631;-80
2022/08/06 02:06:12;;;;;;;2.20;1.60;;;19.90;99.90;;;;;;5095750;28;21137;-80
2022/08/06 02:08:42;;;;;;;2.47;1.57;;;19.90;99.90;;;;;;5092218;28;20628;-80
2022/08/06 02:11:11;;;;;;;2.10;1.17;;;19.90;99.90;;;;;;5089891;28;20737;-80
2022/08/06 02:13:41;;;;;;;3.90;1.30;;;19.90;99.90;;;;;;5091183;28;21798;-80
2022/08/06 02:16:10;;;;;;;1.80;1.37;;;19.90;99.90;;;;;;5078930;28;20639;-83
2022/08/06 02:18:40;;;;;;;4.57;1.30;;;19.90;99.90;;;;;;5086018;28;20635;-82
2022/08/06 02:21:11;;;;;;;3.50;1.40;;;19.90;99.90;;;;;;5093820;28;20709;-82
2022/08/06 02:23:38;;;;;;;2.50;1.63;;;19.90;99.90;;;;;;5085939;28;20723;-82
2022/08/06 02:26:06;;;;;;;2.43;1.20;;;19.90;99.90;;;;;;5091549;28;20646;-82
2022/08/06 02:28:35;;;;;;;2.73;1.60;;;19.80;99.90;;;;;;5092455;28;20624;-81
2022/08/06 02:31:04;;;;;;;1.50;1.00;;;19.80;99.90;;;;;;5092024;28;20675;-82
2022/08/06 02:33:31;;;;;;;1.80;1.50;;;19.80;99.90;;;;;;5089815;28;20966;-82
2022/08/06 02:36:03;;;;;;;2.53;1.40;;;19.80;99.90;;;;;;5093615;28;20652;-81
2022/08/06 02:38:36;;;;;;;1.80;1.53;;;19.70;99.90;;;;;;5088434;28;21193;-81
2022/08/06 02:41:12;;;;;;;2.00;1.23;;;19.70;99.90;;;;;;5098204;28;20679;-81
2022/08/06 02:43:45;;;;;;;1.60;1.43;;;19.70;99.90;;;;;;5088070;28;20722;-81
2022/08/06 02:46:17;;;;;;;2.13;1.10;;;19.60;99.90;;;;;;5090770;28;21058;-81
2022/08/06 02:48:48;;;;;;;2.00;1.20;;;19.60;99.90;;;;;;5092963;28;20616;-80
2022/08/06 02:51:19;;;;;;;1.80;1.10;;;19.60;99.90;;;;;;5092601;28;20651;-80
2022/08/06 02:53:57;;;;;;;1.47;1.37;;;19.60;99.90;;;;;;5093487;28;20622;-80
2022/08/06 02:56:26;;;;;;;1.37;1.00;;;19.50;99.90;;;;;;5092268;28;20616;-80
2022/08/06 02:58:56;;;;;;;1.47;1.37;;;19.50;99.90;;;;;;5090666;28;20633;-81
2022/08/06 03:01:28;;;;;;;1.30;1.10;;;19.50;99.90;;;;;;5091835;28;20698;-80
2022/08/06 03:03:59;;;;;;;2.77;1.47;;;19.50;99.90;;;;;;5089990;28;20609;-81
2022/08/06 03:06:29;;;;;;;1.90;1.40;;;19.50;99.90;;;;;;5067206;28;20673;-81
2022/08/06 03:08:58;;;;;;;3.77;1.30;;;19.50;99.90;;;;;;5093380;28;20643;-80
2022/08/06 03:11:26;;;;;;;1.33;1.20;;;19.40;99.90;;;;;;5095940;28;20654;-80
2022/08/06 03:13:54;;;;;;;3.90;1.37;;;19.40;99.90;;;;;;5093840;28;20660;-81
2022/08/06 03:16:24;;;;;;;3.70;1.43;;;19.40;99.90;;;;;;5088153;28;20633;-81
2022/08/06 03:18:55;;;;;;;2.20;1.10;;;19.40;99.90;;;;;;5087228;28;21122;-81
2022/08/06 03:21:23;;;;;;;3.03;1.53;;;19.40;99.90;;;;;;5094904;28;20826;-81
2022/08/06 03:23:52;;;;;;;1.10;0.80;;;19.40;99.90;;;;;;5091639;28;21129;-81
2022/08/06 03:26:19;;;;;;;3.30;1.40;;;19.30;99.90;;;;;;5089477;28;20631;-80
2022/08/06 03:28:47;;;;;;;1.83;1.03;;;19.40;99.90;;;;;;5091061;28;20628;-80
2022/08/06 03:31:15;;;;;;;2.50;1.17;;;19.40;99.90;;;;;;5093721;28;20675;-80
2022/08/06 03:33:41;;;;;;;1.80;1.00;;;19.40;99.90;;;;;;5087532;28;20646;-80
2022/08/06 03:36:11;;;;;;;2.67;1.50;;;19.30;99.90;;;;;;5093352;28;20881;-80
2022/08/06 03:38:41;;;;;;;3.57;1.37;;;19.30;99.90;;;;;;5089891;28;21268;-80
2022/08/06 03:41:10;;;;;;;2.77;1.53;;;19.30;99.90;;;;;;5087740;28;20667;-80
2022/08/06 03:43:37;;;;;;;2.33;1.60;;;19.30;99.90;;;;;;5086758;28;20647;-80
2022/08/06 03:46:07;;;;;;;3.10;1.30;;;19.20;99.90;;;;;;5094174;28;20631;-80
2022/08/06 03:48:37;;;;;;;1.53;1.43;;;19.20;99.90;;;;;;5090031;28;21175;-78
2022/08/06 03:51:06;;;;;;;1.97;1.30;;;19.20;99.90;;;;;;5084214;28;20624;-80
2022/08/06 03:53:37;;;;;;;1.57;1.20;;;19.20;99.90;;;;;;5081818;28;20647;-80
2022/08/06 03:56:07;;;;;;;2.63;1.87;;;19.20;99.90;;;;;;5088750;28;20624;-80
2022/08/06 03:58:38;;;;;;;2.80;1.13;;;19.20;99.90;;;;;;5085830;28;21513;-80
2022/08/06 04:01:08;;;;;;;2.13;1.40;;;19.10;99.90;;;;;;5086899;28;20900;-80
2022/08/06 04:03:37;;;;;;;2.23;1.50;;;19.20;99.90;;;;;;5083750;28;20663;-80
2022/08/06 04:06:04;;;;;;;2.60;1.50;;;19.10;99.90;;;;;;5090709;28;20634;-80
2022/08/06 04:08:34;;;;;;;2.40;1.53;;;19.10;99.90;;;;;;5089826;28;20650;-78
2022/08/06 04:11:02;;;;;;;3.03;1.30;;;19.10;99.90;;;;;;5087136;28;20639;-78
2022/08/06 04:13:30;;;;;;;3.73;1.20;;;19.10;99.90;;;;;;5081365;28;21023;-78
2022/08/06 04:15:57;;;;;;;2.67;1.40;;;19.10;99.90;;;;;;5076311;28;20677;-79
2022/08/06 04:18:27;;;;;;;4.43;1.47;;;19.00;99.90;;;;;;5090713;28;20714;-79
2022/08/06 04:20:58;;;;;;;4.80;1.37;;;19.00;99.90;;;;;;5085532;28;20772;-79
2022/08/06 04:23:25;;;;;;;2.83;1.43;;;19.00;99.90;;;;;;5091703;28;21350;-78
2022/08/06 04:25:56;;;;;;;2.00;1.80;;;19.00;99.90;;;;;;5091622;28;20675;-78
2022/08/06 04:28:25;;;;;;;1.47;1.37;;;19.00;99.90;;;;;;5091468;28;20746;-78
2022/08/06 04:30:53;;;;;;;3.30;1.70;;;19.00;99.90;;;;;;5091559;28;20653;-80
2022/08/06 04:33:23;;;;;;;2.30;1.43;;;19.00;99.90;;;;;;5091724;28;20647;-80
2022/08/06 04:35:50;;;;;;;1.50;1.40;;;18.90;99.90;;;;;;5091759;28;20637;-80
2022/08/06 04:38:18;;;;;;;3.07;1.80;;;19.00;99.90;;;;;;5088575;28;20623;-80
2022/08/06 04:40:46;;;;;;;3.47;1.80;;;19.00;99.90;;;;;;5093861;28;20635;-80
2022/08/06 04:43:15;;;;;;;1.80;1.70;;;18.90;99.90;;;;;;5083418;28;20648;-80
2022/08/06 04:45:43;;;;;;;2.97;1.30;;;19.00;99.90;;;;;;5088827;28;20631;-80
2022/08/06 04:48:12;;;;;;;1.77;1.20;;;18.90;99.90;;;;;;5064502;28;20624;-80
2022/08/06 04:50:39;;;;;;;2.87;2.67;;;18.90;99.90;;;;;;5082659;28;20651;-80
2022/08/06 04:53:08;;;;;;;1.70;1.60;;;18.90;99.90;;;;;;5089475;28;20654;-78
2022/08/06 04:55:35;;;;;;;2.40;1.30;;;18.90;99.90;;;;;;5088403;28;20640;-78
2022/08/06 04:58:04;;;;;;;1.67;1.30;;;19.00;99.90;;;;;;5092428;28;20623;-78
2022/08/06 05:00:33;;;;;;;1.63;1.53;;;19.00;99.90;;;;;;5090312;28;20646;-78
2022/08/06 05:03:00;;;;;;;1.43;1.33;;;18.90;99.90;;;;;;5090718;28;20653;-79
2022/08/06 05:05:27;;;;;;;1.83;1.60;;;19.00;99.90;;;;;;5087022;28;20626;-78
2022/08/06 05:07:55;;;;;;;1.30;1.20;;;19.00;99.90;;;;;;5092248;28;20632;-78
2022/08/06 05:10:25;;;;;;;1.70;1.43;;;19.00;99.90;;;;;;5087214;28;20638;-78
2022/08/06 05:12:56;;;;;;;2.50;1.40;;;19.10;99.90;;;;;;5095373;28;20648;-78
2022/08/06 05:15:29;;;;;;;1.73;1.50;;;19.10;99.90;;;;;;5089349;28;21562;-78
2022/08/06 05:18:03;;;;;;;1.80;1.70;;;19.10;99.90;;;;;;5093688;28;20629;-79
2022/08/06 05:20:35;;;;;;;5.03;1.77;;;19.00;99.90;;;;;;5095665;28;21292;-78
2022/08/06 05:23:04;;;;;;;3.27;1.53;;;19.10;99.90;;;;;;5095867;28;20647;-78
2022/08/06 05:25:32;;;;;;;2.97;1.53;;;19.20;99.90;;;;;;5094032;28;20626;-78
2022/08/06 05:28:00;;;;;;;1.47;1.37;;;19.20;99.90;;;;;;5095719;28;20970;-78
2022/08/06 05:30:27;;;;;;;3.47;1.40;;;19.20;99.90;;;;;;5092185;28;20620;-78
2022/08/06 05:32:54;;;;;;;1.60;1.50;;;19.20;99.90;;;;;;5090396;28;20667;-78
2022/08/06 05:35:22;;;;;;;3.50;1.57;;;19.10;99.90;;;;;;5090525;28;20632;-78
2022/08/06 05:37:49;;;;;;;1.57;1.40;;;19.20;99.90;;;;;;5085590;28;20640;-78
2022/08/06 05:40:16;;;;;;;3.37;1.70;;;19.20;99.90;;;;;;5097250;28;20611;-78
2022/08/06 05:42:43;;;;;;;1.63;1.53;;;19.20;99.90;;;;;;5092017;28;20634;-80
2022/08/06 05:45:13;;;;;;;2.53;1.30;;;19.20;99.90;;;;;;5090645;28;20623;-79
2022/08/06 05:47:43;;;;;;;2.27;1.70;;;19.20;99.90;;;;;;5092793;28;20962;-78
2022/08/06 05:50:17;;;;;;;2.90;1.80;;;19.20;99.90;;;;;;5085869;28;20616;-78
2022/08/06 05:52:50;;;;;;;4.10;2.10;;;19.20;99.90;;;;;;5089529;28;20686;-78
2022/08/06 05:55:22;;;;;;;3.97;2.60;;;19.20;99.90;;;;;;5096681;28;20806;-80
2022/08/06 05:57:53;;;;;;;3.60;2.40;;;19.30;99.90;;;;;;5090280;28;20627;-80
2022/08/06 06:00:23;;;;;;;2.00;1.90;;;19.30;99.90;;;;;;5095983;28;20623;-80
2022/08/06 06:02:53;;;;;;;4.03;1.80;;;19.40;99.90;;;;;;5090107;28;20652;-80
2022/08/06 06:05:21;;;;;;;4.17;1.87;;;19.30;99.90;;;;;;5094939;28;20622;-81
2022/08/06 06:07:51;;;;;;;2.73;1.80;;;19.40;99.90;;;;;;5092752;28;20632;-80
2022/08/06 06:10:19;;;;;;;2.27;2.17;;;19.40;99.90;;;;;;5093966;28;20607;-79
2022/08/06 06:12:47;;;;;;;3.43;1.67;;;19.40;99.90;;;;;;5093141;28;20664;-79
2022/08/06 06:15:16;;;;;;;2.70;1.80;;;19.40;99.90;;;;;;5096379;28;20732;-79
2022/08/06 06:18:02;;;;;;;5.40;2.20;;;19.50;99.90;;;;;;5083360;28;21193;-79
2022/08/06 06:20:39;;;;;;;3.10;1.53;;;19.60;99.90;;;;;;5084476;28;21314;-78
2022/08/06 06:23:14;;;;;;;1.97;1.87;;;19.60;99.90;;;;;;5085324;28;21200;-78
2022/08/06 06:25:47;;;;;;;2.00;1.80;;;19.70;99.90;;;;;;5090997;28;20654;-79
2022/08/06 06:28:24;;;;;;;1.97;1.30;;;19.70;99.90;;;;;;5096366;28;20614;-79
2022/08/06 06:31:00;;;;;;;1.90;1.70;;;19.70;99.90;;;;;;5093142;28;20664;-79
2022/08/06 06:33:37;;;;;;;1.90;1.37;;;19.80;99.90;;;;;;5091609;28;20651;-79
2022/08/06 06:36:11;;;;;;;1.93;1.43;;;19.90;99.90;;;;;;5097589;28;20615;-79
2022/08/06 06:38:46;;;;;;;2.30;1.67;;;20.00;99.90;;;;;;5089791;28;21012;-79
2022/08/06 06:41:18;;;;;;;2.50;1.57;;;20.10;99.90;;;;;;5089726;28;20625;-79
2022/08/06 06:43:50;;;;;;;1.43;1.33;;;20.00;99.90;;;;;;5082928;28;20647;-79
2022/08/06 06:46:22;;;;;;;2.60;1.67;;;20.10;99.90;;;;;;5094994;28;20613;-79
2022/08/06 06:48:52;;;;;;;2.60;2.27;;;20.10;99.90;;;;;;5088990;28;20633;-78
2022/08/06 06:51:25;;;;;;;1.97;1.73;;;20.20;99.90;;;;;;5091107;28;20680;-79
2022/08/06 06:53:55;;;;;;;2.53;2.33;;;20.20;99.90;;;;;;5093224;28;20657;-79
2022/08/06 06:56:27;;;;;;;3.70;2.20;;;20.30;99.90;;;;;;5088358;28;21019;-79
2022/08/06 06:59:02;;;;;;;3.70;2.27;;;20.30;99.90;;;;;;5093803;28;20617;-79
2022/08/06 07:01:32;;;;;;;3.23;1.37;;;20.40;99.90;;;;;;5092521;28;20623;-79
2022/08/06 07:04:01;;;;;;;3.27;2.10;;;20.40;99.90;;;;;;5087933;28;20810;-79
2022/08/06 07:06:30;;;;;;;3.97;1.70;;;20.50;99.90;;;;;;5092992;28;20685;-79
2022/08/06 07:08:58;;;;;;;2.07;1.87;;;20.60;99.90;;;;;;5087835;28;20648;-79
2022/08/06 07:11:27;;;;;;;2.90;1.90;;;20.70;99.90;;;;;;5092988;28;20672;-79
2022/08/06 07:13:56;;;;;;;1.97;1.73;;;20.70;99.90;;;;;;5091004;28;20680;-78
2022/08/06 07:16:24;;;;;;;2.50;1.80;;;20.80;99.90;;;;;;5107247;28;20649;-78
2022/08/06 07:18:54;;;;;;;5.13;2.80;;;20.80;99.90;;;;;;5092694;28;20625;-78
2022/08/06 07:21:22;;;;;;;3.03;1.87;;;20.90;99.90;;;;;;5094501;28;20760;-78
2022/08/06 07:23:51;;;;;;;2.07;1.90;;;21.10;99.90;;;;;;5087044;28;20667;-78
2022/08/06 07:26:20;;;;;;;1.83;1.73;;;21.20;99.90;;;;;;5089571;28;20620;-78
2022/08/06 07:28:48;;;;;;;4.37;1.77;;;21.30;99.90;;;;;;5092172;28;20640;-79
2022/08/06 07:31:16;;;;;;;2.70;1.63;;;21.30;99.90;;;;;;5092215;28;21025;-78
2022/08/06 07:33:45;;;;;;;2.63;2.10;;;21.40;99.90;;;;;;5078718;28;20668;-78
2022/08/06 07:36:16;;;;;;;2.13;1.33;;;21.40;99.90;;;;;;5094214;28;20722;-78
2022/08/06 07:38:46;;;;;;;4.00;1.70;;;21.40;99.90;;;;;;5087644;28;20619;-78
2022/08/06 07:41:14;;;;;;;3.10;1.50;;;21.50;99.90;;;;;;5094248;28;20627;-78
2022/08/06 07:43:47;;;;;;;3.20;1.93;;;21.50;99.90;;;;;;5087856;28;20647;-79
2022/08/06 07:46:20;;;;;;;3.60;2.20;;;21.50;99.90;;;;;;5086772;28;20623;-78
2022/08/06 07:48:50;;;;;;;3.30;1.57;;;21.60;99.90;;;;;;5091273;28;21135;-79
2022/08/06 07:51:22;;;;;;;2.20;1.40;;;21.60;99.90;;;;;;5094440;28;20683;-78
2022/08/06 07:53:50;;;;;;;2.20;1.80;;;21.50;99.60;;;;;;5089795;28;20653;-79
2022/08/06 07:56:19;;;;;;;2.97;2.07;;;21.40;99.90;;;;;;5092006;28;20619;-78
2022/08/06 07:58:47;;;;;;;1.53;1.43;;;21.40;99.90;;;;;;5086350;28;20624;-79
2022/08/06 08:01:14;;;;;;;3.10;1.60;;;21.50;99.90;;;;;;5089970;28;20619;-78
2022/08/06 08:06:28;;;;;;;2.80;1.87;;;21.70;99.90;;;;;;5092389;28;20711;-79
2022/08/06 08:08:57;;;;;;;4.17;2.10;;;21.70;99.60;;;;;;5091894;28;20712;-78
2022/08/06 08:11:25;;;;;;;2.20;2.00;;;21.60;99.20;;;;;;5091991;28;20671;-78
2022/08/06 08:13:55;;;;;;;2.73;2.00;;;21.60;99.40;;;;;;5090761;28;20762;-79
2022/08/06 08:16:23;;;;;;;2.10;1.57;;;21.60;99.50;;;;;;5088826;28;21258;-78
2022/08/06 08:18:49;;;;;;;3.47;2.13;;;21.60;99.50;;;;;;5087936;28;21218;-78
2022/08/06 08:21:17;;;;;;;2.37;2.17;;;21.60;99.20;;;;;;5094415;28;20622;-78
2022/08/06 08:23:46;;;;;;;2.20;1.70;;;21.70;99.00;;;;;;5086444;28;20706;-78
2022/08/06 08:26:13;;;;;;;2.03;1.83;;;21.80;99.30;;;;;;5093378;28;20619;-78
2022/08/06 08:28:40;;;;;;;3.53;1.93;;;21.80;98.80;;;;;;5082171;28;21183;-79
2022/08/06 08:31:08;;;;;;;2.27;2.17;;;22.00;99.00;;;;;;5085884;28;20637;-78
2022/08/06 08:33:35;;;;;;;3.47;2.10;;;22.10;98.60;;;;;;5090273;28;20650;-78
2022/08/06 08:36:04;;;;;;;3.40;1.43;;;22.20;98.20;;;;;;5092763;28;20988;-79
2022/08/06 08:38:32;;;;;;;3.73;1.67;;;22.30;98.00;;;;;;5085226;28;20718;-79
2022/08/06 08:41:02;;;;;;;2.07;1.70;;;22.50;97.10;;;;;;5092362;28;20625;-79
2022/08/06 08:43:33;;;;;;;1.93;1.60;;;22.60;96.60;;;;;;5085842;28;20645;-78
2022/08/06 08:46:02;;;;;;;2.10;1.90;;;22.70;95.90;;;;;;5093062;28;20956;-79
2022/08/06 08:48:32;;;;;;;3.33;1.70;;;22.80;95.80;;;;;;5095466;28;21058;-78
2022/08/06 08:51:00;;;;;;;2.20;1.50;;;23.00;95.20;;;;;;5094614;28;20630;-79
2022/08/06 08:53:33;;;;;;;4.73;2.97;;;23.00;94.40;;;;;;5093137;28;20678;-78
2022/08/06 08:56:01;;;;;;;2.93;1.90;;;23.00;94.60;;;;;;5097079;28;20624;-79
2022/08/06 08:58:28;;;;;;;3.50;1.57;;;23.10;95.10;;;;;;5093746;28;20658;-79
2022/08/06 09:00:55;;;;;;;2.50;1.30;;;23.20;95.00;;;;;;5096498;28;20628;-79
2022/08/06 09:03:22;;;;;;;3.20;1.90;;;23.40;94.50;;;;;;5092695;28;20669;-78
2022/08/06 09:05:51;;;;;;;2.80;1.70;;;23.40;93.60;;;;;;5092739;28;20625;-78
2022/08/06 09:08:18;;;;;;;5.37;2.07;;;23.50;93.10;;;;;;5097459;28;21185;-78
2022/08/06 09:10:45;;;;;;;3.30;1.90;;;23.60;92.90;;;;;;5097152;28;20633;-78
2022/08/06 09:13:12;;;;;;;3.47;3.17;;;23.60;92.00;;;;;;5104536;28;20674;-79
2022/08/06 09:15:39;;;;;;;2.33;1.63;;;23.70;92.60;;;;;;5091698;28;21391;-78
2022/08/06 09:18:06;;;;;;;1.83;1.47;;;23.90;92.30;;;;;;5093348;28;20994;-79
2022/08/06 09:20:34;;;;;;;2.00;1.80;;;23.90;92.30;;;;;;5095750;28;20703;-78
2022/08/06 09:23:03;;;;;;;3.00;1.87;;;23.90;92.10;;;;;;5091556;28;21423;-79
2022/08/06 09:25:37;;;;;;;3.10;1.80;;;23.90;91.70;;;;;;5092855;28;20746;-79
2022/08/06 09:28:09;;;;;;;2.77;2.03;;;23.90;90.90;;;;;;5100698;28;21005;-79
2022/08/06 09:30:36;;;;;;;2.23;1.53;;;23.90;90.90;;;;;;5082327;28;20650;-79
2022/08/06 09:33:02;;;;;;;1.90;1.60;;;24.00;90.70;;;;;;5092210;28;20679;-78
2022/08/06 09:35:30;;;;;;;1.40;1.30;;;24.10;90.80;;;;;;5096138;28;21365;-78
2022/08/06 09:38:04;;;;;;;3.03;1.80;;;24.30;90.90;;;;;;5091482;28;20632;-79
2022/08/06 09:40:31;;;;;;;1.93;1.63;;;24.30;90.00;;;;;;5095272;28;20721;-78
2022/08/06 09:42:58;;;;;;;1.80;1.47;;;24.50;88.40;;;;;;5089474;28;20735;-78
2022/08/06 09:45:26;;;;;;;5.10;1.53;;;24.50;87.30;;;;;;5092462;28;21307;-78
2022/08/06 09:48:02;;;;;;;1.60;1.50;;;24.50;89.10;;;;;;5095362;28;21043;-78
2022/08/06 09:50:38;;;;;;;1.53;1.43;;;24.80;88.40;;;;;;5091617;28;20665;-79
2022/08/06 09:53:07;;;;;;;4.60;1.70;;;24.90;88.10;;;;;;5094018;28;20709;-78
2022/08/06 09:55:34;;;;;;;4.43;1.83;;;25.10;87.20;;;;;;5095898;28;20700;-79
2022/08/06 09:58:02;;;;;;;3.20;1.70;;;25.10;85.40;;;;;;5091318;28;20651;-78
2022/08/06 10:00:30;;;;;;;3.30;1.90;;;25.30;84.80;;;;;;5095147;28;20729;-79
2022/08/06 10:02:58;;;;;;;1.67;1.50;;;25.50;81.60;;;;;;5092030;28;20738;-78
2022/08/06 10:05:26;;;;;;;4.63;1.60;;;25.50;80.60;;;;;;5091739;28;20680;-78
2022/08/06 10:08:11;;;;;;;4.33;1.60;;;25.60;80.80;;;;;;5086809;28;20630;-79
2022/08/06 10:10:43;;;;;;;2.83;1.70;;;25.70;82.00;;;;;;5087128;28;21200;-79
2022/08/06 10:13:23;;;;;;;3.00;1.63;;;25.60;80.50;;;;;;5091517;28;20671;-79
2022/08/06 10:15:51;;;;;;;1.77;1.50;;;25.70;80.70;;;;;;5091377;28;20629;-78
2022/08/06 10:18:36;;;;;;;1.67;1.57;;;25.80;80.80;;;;;;5096279;28;20623;-79
2022/08/06 10:21:04;;;;;;;1.73;1.60;;;25.80;79.20;;;;;;5095222;28;20619;-78
2022/08/06 10:23:38;;;;;;;2.00;1.57;;;25.80;80.00;;;;;;5087699;28;20640;-79
2022/08/06 10:26:06;;;;;;;2.90;1.60;;;25.80;78.80;;;;;;5096625;28;20673;-78
2022/08/06 10:28:36;;;;;;;2.00;1.70;;;25.80;80.40;;;;;;5071927;28;20632;-78
2022/08/06 10:31:04;;;;;;;2.30;1.87;;;25.60;78.40;;;;;;5083863;28;21220;-79
2022/08/06 10:33:34;;;;;;;1.73;1.60;;;25.80;79.20;;;;;;5093764;28;20672;-79
2022/08/06 10:36:10;;;;;;;4.03;1.63;;;25.90;77.40;;;;;;5095322;28;21194;-78
2022/08/06 10:38:43;;;;;;;2.57;1.70;;;26.00;77.10;;;;;;5088524;28;21338;-79
2022/08/06 10:41:11;;;;;;;2.97;1.60;;;26.00;77.20;;;;;;5087615;28;20624;-79
2022/08/06 10:43:39;;;;;;;2.53;1.53;;;26.00;76.20;;;;;;5088105;28;21169;-79
2022/08/06 10:46:09;;;;;;;1.73;1.33;;;26.00;76.90;;;;;;5082733;28;20739;-79
2022/08/06 10:48:37;;;;;;;6.03;1.93;;;26.20;76.30;;;;;;5090536;28;20662;-78
2022/08/06 10:51:05;;;;;;;3.33;1.87;;;26.00;75.80;;;;;;5090431;28;20680;-79
2022/08/06 10:53:33;;;;;;;1.80;1.40;;;26.10;76.50;;;;;;5090739;28;20707;-79
2022/08/06 10:56:04;;;;;;;2.90;2.13;;;26.10;75.90;;;;;;5090859;28;21007;-79
2022/08/06 10:58:31;;;;;;;3.40;1.90;;;26.20;75.80;;;;;;5089875;28;20620;-79
2022/08/06 11:01:00;;;;;;;5.20;1.93;;;26.30;74.90;;;;;;5093256;28;20631;-79
2022/08/06 11:03:38;;;;;;;2.97;1.60;;;26.40;75.20;;;;;;5090476;28;20651;-79
2022/08/06 11:06:19;;;;;;;3.40;1.77;;;26.60;74.20;;;;;;5093283;28;20608;-79
2022/08/06 11:09:06;;;;;;;3.60;1.77;;;26.70;72.40;;;;;;5086598;28;20715;-78
2022/08/06 11:11:52;;;;;;;4.57;1.73;;;27.00;72.70;;;;;;5088697;28;20624;-79
2022/08/06 11:14:20;;;;;;;5.07;1.60;;;27.00;70.70;;;;;;5092671;28;20675;-79
2022/08/06 11:16:55;;;;;;;1.40;1.30;;;27.20;70.50;;;;;;5092148;28;20675;-79
2022/08/06 11:19:38;;;;;;;2.33;1.57;;;27.50;71.10;;;;;;5094209;28;20684;-80
2022/08/06 11:22:05;;;;;;;1.60;1.50;;;27.80;69.10;;;;;;5088950;28;20926;-78
2022/08/06 11:24:33;;;;;;;1.63;1.13;;;27.90;68.60;;;;;;5085750;28;20682;-78
2022/08/06 11:27:01;;;;;;;2.10;1.43;;;28.00;67.70;;;;;;5094580;28;20979;-79
2022/08/06 11:29:28;;;;;;;2.07;1.20;;;28.10;68.20;;;;;;5093688;28;20627;-79
2022/08/06 11:31:57;;;;;;;1.70;1.57;;;28.30;66.80;;;;;;5089885;28;20637;-78
2022/08/06 11:34:42;;;;;;;2.20;1.97;;;28.30;65.80;;;;;;5092977;28;20742;-79
2022/08/06 11:37:09;;;;;;;2.30;1.70;;;28.60;66.00;;;;;;5087774;28;21019;-78
2022/08/06 11:40:06;;;;;;;4.33;1.67;;;28.80;64.70;;;;;;5087334;28;20967;-79
2022/08/06 11:42:44;;;;;;;3.10;1.63;;;28.90;62.90;;;;;;5094561;28;20623;-78
2022/08/06 11:45:12;;;;;;;2.50;1.93;;;29.00;65.00;;;;;;5092663;28;20627;-78
2022/08/06 11:48:04;;;;;;;2.27;2.07;;;29.30;62.90;;;;;;5098229;28;20616;-78
2022/08/06 11:50:31;;;;;;;1.90;1.50;;;29.50;61.00;;;;;;5090511;28;20707;-78
2022/08/06 11:52:58;;;;;;;2.93;1.47;;;29.60;60.70;;;;;;5091607;28;20687;-79
2022/08/06 11:55:25;;;;;;;1.70;1.60;;;29.90;60.40;;;;;;5090280;28;20726;-78
2022/08/06 11:58:20;;;;;;;2.30;1.73;;;30.20;59.70;;;;;;5086960;28;20994;-79
2022/08/06 12:01:04;;;;;;;3.07;1.50;;;30.50;59.40;;;;;;5087708;28;20643;-78
2022/08/06 12:03:38;;;;;;;3.00;1.63;;;30.30;58.10;;;;;;5087962;28;20640;-78
2022/08/06 12:06:20;;;;;;;5.50;1.57;;;30.50;58.20;;;;;;5090672;28;20631;-78
2022/08/06 12:09:10;;;;;;;1.70;1.60;;;30.70;58.40;;;;;;5089510;28;20620;-79
2022/08/06 12:11:37;;;;;;;6.00;2.33;;;30.20;57.30;;;;;;5086692;28;20648;-79
2022/08/06 12:14:27;;;;;;;2.83;1.60;;;30.10;57.50;;;;;;5094583;28;20769;-78
2022/08/06 12:16:55;;;;;;;2.43;1.50;;;30.10;58.10;;;;;;5095181;28;20639;-79
2022/08/06 12:19:22;;;;;;;1.60;1.50;;;30.20;57.30;;;;;;5091915;28;20623;-78
2022/08/06 12:21:53;;;;;;;4.37;1.53;;;30.40;57.20;;;;;;5085882;28;20632;-79
2022/08/06 12:24:26;;;;;;;1.67;1.57;;;30.70;56.30;;;;;;5087861;28;20647;-78
2022/08/06 12:26:53;;;;;;;3.23;1.27;;;30.50;56.30;;;;;;5088997;28;20745;-78
2022/08/06 12:29:23;;;;;;;1.80;1.70;;;30.60;56.70;;;;;;5093948;28;20627;-79
2022/08/06 12:31:49;;;;;;;2.03;1.33;;;30.50;55.90;;;;;;5088205;28;20632;-81
2022/08/06 12:34:25;;;;;;;2.53;1.40;;;30.40;56.20;;;;;;5089343;28;20673;-78
2022/08/06 12:36:52;;;;;;;1.60;1.50;;;30.30;57.00;;;;;;5080318;28;20617;-81
2022/08/06 12:39:19;;;;;;;1.20;1.10;;;30.20;55.80;;;;;;5092166;28;20623;-80
2022/08/06 12:41:46;;;;;;;1.50;1.40;;;30.60;55.30;;;;;;5091074;28;21082;-78
2022/08/06 12:44:14;;;;;;;1.57;1.40;;;31.10;55.60;;;;;;5101527;28;20631;-78
2022/08/06 12:46:43;;;;;;;2.40;1.33;;;31.70;54.00;;;;;;5090098;28;20628;-81
2022/08/06 12:49:10;;;;;;;1.87;1.27;;;32.30;53.30;;;;;;5089614;28;20634;-78
2022/08/06 12:51:37;;;;;;;1.60;1.50;;;32.70;52.80;;;;;;5084996;28;21000;-78
2022/08/06 12:54:07;;;;;;;1.93;1.50;;;33.10;50.50;;;;;;5092033;28;20748;-78
2022/08/06 12:56:37;;;;;;;2.07;1.70;;;32.90;50.40;;;;;;5087486;28;20631;-80
2022/08/06 12:59:06;;;;;;;2.13;1.67;;;33.20;50.60;;;;;;5085973;28;20629;-80
2022/08/06 13:01:35;;;;;;;2.57;2.37;;;33.40;49.40;;;;;;5092161;28;20638;-80
2022/08/06 13:04:09;;;;;;;3.33;2.00;;;33.60;49.20;;;;;;5089546;28;21024;-80
2022/08/06 13:06:37;;;;;;;2.50;2.00;;;33.80;48.10;;;;;;5085953;28;20631;-81